Time;durP1;ratioP1;P1;durP2;ratioP2;P2;SDS_P1;SDS_P2;PMS_P1;PMS_P2;Temp;Humidity;BMP_temperature;BMP_pressure;BME280_temperature;BME280_humidity;BME280_pressure;Samples;Min_cycle;Max_cycle;Signal;HPM_P1;HPM_P2
2021/09/07 00:01:06;;;;;;;28.67;22.77;;;17.80;99.90;;;;;;5005238;28;25103;-73
2021/09/07 00:03:31;;;;;;;33.70;24.15;;;17.80;99.90;;;;;;5010690;28;25061;-74
2021/09/07 00:05:57;;;;;;;32.05;25.27;;;17.50;99.90;;;;;;5010691;28;25044;-74
2021/09/07 00:08:22;;;;;;;31.60;23.27;;;17.50;99.90;;;;;;5006852;28;25078;-73
2021/09/07 00:10:48;;;;;;;30.95;23.20;;;17.40;99.90;;;;;;5005742;28;25063;-72
2021/09/07 00:13:14;;;;;;;27.52;22.45;;;17.30;99.90;;;;;;5013652;28;25050;-73
2021/09/07 00:15:39;;;;;;;36.35;24.42;;;17.30;99.90;;;;;;5012000;28;25057;-73
2021/09/07 00:18:05;;;;;;;32.15;24.27;;;17.20;99.90;;;;;;5012072;28;25080;-73
2021/09/07 00:20:30;;;;;;;33.03;24.20;;;17.20;99.90;;;;;;5011648;28;25044;-72
2021/09/07 00:22:56;;;;;;;37.47;25.63;;;17.20;99.90;;;;;;5010764;28;25077;-74
2021/09/07 00:25:22;;;;;;;34.47;25.08;;;17.20;99.90;;;;;;5012170;28;25072;-73
2021/09/07 00:27:47;;;;;;;39.20;25.55;;;17.20;99.90;;;;;;5006025;28;25083;-73
2021/09/07 00:30:13;;;;;;;36.28;25.25;;;17.10;99.90;;;;;;5006707;28;25099;-74
2021/09/07 00:32:40;;;;;;;34.42;25.02;;;17.10;99.90;;;;;;5004900;28;25173;-73
2021/09/07 00:35:07;;;;;;;36.30;24.95;;;17.10;99.90;;;;;;5006070;28;25069;-74
2021/09/07 00:37:33;;;;;;;33.63;24.23;;;17.20;99.90;;;;;;5008432;28;25141;-73
2021/09/07 00:39:59;;;;;;;37.03;25.02;;;17.20;99.90;;;;;;5011268;28;25118;-74
2021/09/07 00:42:25;;;;;;;36.08;26.52;;;17.20;99.90;;;;;;5012619;28;25056;-74
2021/09/07 00:44:50;;;;;;;34.72;25.30;;;17.10;99.90;;;;;;5013926;28;25074;-73
2021/09/07 00:47:16;;;;;;;36.80;22.92;;;17.20;99.90;;;;;;5011804;28;25076;-72
2021/09/07 00:49:42;;;;;;;38.25;25.88;;;17.30;99.90;;;;;;5010461;28;25075;-73
2021/09/07 00:52:08;;;;;;;36.72;24.63;;;17.30;99.90;;;;;;5012420;28;25132;-72
2021/09/07 00:54:36;;;;;;;40.65;27.33;;;17.30;99.90;;;;;;5012709;28;25115;-73
2021/09/07 00:57:08;;;;;;;41.17;25.25;;;17.20;99.90;;;;;;5010125;28;25059;-73
2021/09/07 00:59:34;;;;;;;39.20;27.67;;;17.10;99.90;;;;;;5015945;28;25058;-72
2021/09/07 01:02:01;;;;;;;39.42;26.25;;;16.90;99.90;;;;;;5026944;28;25108;-72
2021/09/07 01:04:30;;;;;;;42.17;27.55;;;17.00;99.90;;;;;;5027289;28;25118;-74
2021/09/07 01:06:57;;;;;;;38.15;26.52;;;17.10;99.90;;;;;;5031157;28;25059;-71
2021/09/07 01:09:26;;;;;;;40.53;26.60;;;17.10;99.90;;;;;;5036269;28;25110;-72
2021/09/07 01:11:59;;;;;;;42.05;30.08;;;17.10;99.90;;;;;;5031170;28;25055;-74
2021/09/07 01:14:29;;;;;;;42.97;27.90;;;17.00;99.90;;;;;;5029565;28;25071;-72
2021/09/07 01:17:02;;;;;;;40.92;28.98;;;17.00;99.90;;;;;;5031081;28;25062;-73
2021/09/07 01:19:29;;;;;;;36.67;27.02;;;17.00;99.90;;;;;;5031861;28;25092;-72
2021/09/07 01:21:56;;;;;;;43.13;28.38;;;17.10;99.90;;;;;;5029614;28;25102;-73
2021/09/07 01:24:25;;;;;;;43.55;29.38;;;17.10;99.90;;;;;;5028809;28;25063;-72
2021/09/07 01:26:51;;;;;;;41.15;28.38;;;17.10;99.90;;;;;;5032548;28;25058;-73
2021/09/07 01:29:17;;;;;;;42.58;28.65;;;17.10;99.90;;;;;;5026224;28;25069;-73
2021/09/07 01:31:44;;;;;;;47.03;32.83;;;17.00;99.90;;;;;;5012679;28;25057;-74
2021/09/07 01:34:21;;;;;;;45.05;31.30;;;17.00;99.90;;;;;;5017048;28;25091;-72
2021/09/07 01:36:46;;;;;;;46.55;32.58;;;16.90;99.90;;;;;;5014867;28;25071;-72
2021/09/07 01:39:13;;;;;;;45.88;30.85;;;16.90;99.90;;;;;;5006344;28;25058;-74
2021/09/07 01:41:39;;;;;;;45.80;30.67;;;16.80;99.90;;;;;;5012281;28;25081;-72
2021/09/07 01:44:04;;;;;;;46.25;31.48;;;16.80;99.90;;;;;;5014302;28;25065;-73
2021/09/07 01:46:30;;;;;;;48.25;32.90;;;16.70;99.90;;;;;;5012144;28;25086;-72
2021/09/07 01:48:55;;;;;;;46.70;33.13;;;16.70;99.90;;;;;;5012548;28;25152;-73
2021/09/07 01:51:21;;;;;;;49.17;33.47;;;16.70;99.90;;;;;;5012679;28;25178;-73
2021/09/07 01:53:46;;;;;;;50.42;32.10;;;16.60;99.90;;;;;;5007078;28;25134;-72
2021/09/07 01:56:12;;;;;;;47.78;32.88;;;16.60;99.90;;;;;;5005091;28;25062;-73
2021/09/07 01:58:38;;;;;;;47.22;33.00;;;16.60;99.90;;;;;;5011954;28;25104;-73
2021/09/07 02:01:03;;;;;;;53.13;34.67;;;16.50;99.90;;;;;;5010696;28;25129;-71
2021/09/07 02:03:29;;;;;;;53.47;33.83;;;16.50;99.90;;;;;;5011192;28;25076;-72
2021/09/07 02:05:54;;;;;;;46.13;32.65;;;16.50;99.90;;;;;;5008739;28;25077;-73
2021/09/07 02:08:20;;;;;;;51.45;36.08;;;16.40;99.90;;;;;;5009735;28;25077;-71
2021/09/07 02:10:45;;;;;;;51.33;34.80;;;16.40;99.90;;;;;;5005254;28;25136;-73
2021/09/07 02:13:11;;;;;;;49.05;33.55;;;16.40;99.90;;;;;;5010716;28;25112;-73
2021/09/07 02:15:37;;;;;;;47.72;31.80;;;16.40;99.90;;;;;;5005758;28;25076;-74
2021/09/07 02:18:02;;;;;;;53.75;34.13;;;16.40;99.90;;;;;;5001126;28;25055;-73
2021/09/07 02:20:28;;;;;;;51.13;34.45;;;16.40;99.90;;;;;;5010245;28;25060;-73
2021/09/07 02:22:54;;;;;;;48.13;33.05;;;16.40;99.90;;;;;;5009277;28;25058;-73
2021/09/07 02:25:20;;;;;;;49.88;34.33;;;16.40;99.90;;;;;;5010619;28;25087;-74
2021/09/07 02:27:46;;;;;;;52.58;35.70;;;16.40;99.90;;;;;;5009399;28;25064;-74
2021/09/07 02:30:13;;;;;;;45.72;32.75;;;16.40;99.90;;;;;;5010654;28;25128;-74
2021/09/07 02:32:39;;;;;;;50.28;34.60;;;16.40;99.90;;;;;;5014810;28;25069;-72
2021/09/07 02:35:05;;;;;;;48.28;34.08;;;16.30;99.90;;;;;;5016872;28;25062;-73
2021/09/07 02:37:31;;;;;;;52.47;34.92;;;16.30;99.90;;;;;;4998623;28;25113;-73
2021/09/07 02:39:58;;;;;;;56.78;35.90;;;16.30;99.90;;;;;;5003141;28;25126;-73
2021/09/07 02:42:23;;;;;;;54.70;36.97;;;16.30;99.90;;;;;;4997326;28;25143;-73
2021/09/07 02:44:49;;;;;;;49.15;35.60;;;16.30;99.90;;;;;;5002013;28;25100;-74
2021/09/07 02:47:15;;;;;;;51.10;35.20;;;16.40;99.90;;;;;;4999309;28;25104;-73
2021/09/07 02:49:40;;;;;;;52.47;35.80;;;16.50;99.90;;;;;;5006329;28;25074;-76
2021/09/07 02:52:06;;;;;;;55.05;34.05;;;16.50;99.90;;;;;;4991461;28;25160;-73
2021/09/07 02:54:32;;;;;;;56.97;35.60;;;16.40;99.90;;;;;;5003692;28;25220;-74
2021/09/07 02:56:58;;;;;;;48.08;34.92;;;16.40;99.90;;;;;;5007088;28;25094;-73
2021/09/07 02:59:24;;;;;;;53.75;36.15;;;16.40;99.90;;;;;;5008889;28;25133;-73
2021/09/07 03:01:50;;;;;;;53.45;35.40;;;16.30;99.90;;;;;;5009296;28;25064;-73
2021/09/07 03:04:16;;;;;;;54.60;36.17;;;16.20;99.90;;;;;;5006989;28;25053;-72
2021/09/07 03:06:41;;;;;;;54.30;35.80;;;16.20;99.90;;;;;;5007140;28;25110;-73
2021/09/07 03:09:08;;;;;;;57.97;36.92;;;16.20;99.90;;;;;;5010224;28;25062;-73
2021/09/07 03:11:33;;;;;;;58.33;36.00;;;16.20;99.90;;;;;;5008906;28;25065;-73
2021/09/07 03:13:59;;;;;;;53.25;36.58;;;16.10;99.90;;;;;;5009948;28;25129;-73
2021/09/07 03:16:25;;;;;;;56.10;36.90;;;16.10;99.90;;;;;;5009298;28;25072;-72
2021/09/07 03:18:51;;;;;;;61.92;39.25;;;16.10;99.90;;;;;;5009144;28;25058;-74
2021/09/07 03:21:17;;;;;;;53.70;37.53;;;16.10;99.90;;;;;;5009195;28;25055;-72
2021/09/07 03:23:43;;;;;;;56.28;37.78;;;16.20;99.90;;;;;;5004213;28;25063;-73
2021/09/07 03:26:09;;;;;;;49.65;36.95;;;16.20;99.90;;;;;;4996253;28;25059;-75
2021/09/07 03:28:35;;;;;;;58.17;38.70;;;16.20;99.90;;;;;;5008174;28;25176;-73
2021/09/07 03:31:01;;;;;;;57.80;38.50;;;16.10;99.90;;;;;;5001417;28;25118;-74
2021/09/07 03:33:26;;;;;;;62.80;39.72;;;16.10;99.90;;;;;;5012224;28;25067;-73
2021/09/07 03:35:52;;;;;;;56.90;35.92;;;16.10;99.90;;;;;;5008770;28;25077;-73
2021/09/07 03:38:17;;;;;;;49.15;34.17;;;16.20;99.90;;;;;;5007012;28;25067;-73
2021/09/07 03:40:44;;;;;;;54.70;36.88;;;16.30;99.90;;;;;;5012011;28;25093;-72
2021/09/07 03:43:10;;;;;;;56.10;37.00;;;16.30;99.90;;;;;;5004717;28;25078;-72
2021/09/07 03:45:35;;;;;;;56.35;39.10;;;16.20;99.90;;;;;;5010392;28;25072;-74
2021/09/07 03:48:01;;;;;;;62.10;39.17;;;16.10;99.90;;;;;;5011475;28;25058;-73
2021/09/07 03:50:27;;;;;;;56.97;38.20;;;16.00;99.90;;;;;;5011828;28;25112;-73
2021/09/07 03:52:53;;;;;;;58.50;37.55;;;16.00;99.90;;;;;;5011705;28;25096;-73
2021/09/07 03:55:18;;;;;;;53.83;36.15;;;16.00;99.90;;;;;;5012135;28;25135;-72
2021/09/07 03:57:44;;;;;;;56.40;36.13;;;16.00;99.90;;;;;;5011498;28;25074;-73
2021/09/07 04:00:10;;;;;;;66.47;38.72;;;16.00;99.90;;;;;;5012195;28;25057;-74
2021/09/07 04:02:36;;;;;;;57.60;38.95;;;15.90;99.90;;;;;;5004439;28;25159;-73
2021/09/07 04:05:02;;;;;;;57.80;38.33;;;15.90;99.90;;;;;;5008757;28;25084;-75
2021/09/07 04:07:27;;;;;;;56.35;38.05;;;15.90;99.90;;;;;;5010526;28;25060;-73
2021/09/07 04:09:53;;;;;;;64.07;40.60;;;15.90;99.90;;;;;;5011721;28;25118;-71
2021/09/07 04:12:18;;;;;;;64.38;40.22;;;15.80;99.90;;;;;;5010894;28;25063;-72
2021/09/07 04:14:44;;;;;;;59.53;40.35;;;15.90;99.90;;;;;;5011065;28;25078;-72
2021/09/07 04:17:10;;;;;;;71.32;43.20;;;15.90;99.90;;;;;;5003615;28;25066;-73
2021/09/07 04:19:35;;;;;;;68.63;41.35;;;15.90;99.90;;;;;;5008274;28;25131;-71
2021/09/07 04:22:01;;;;;;;79.65;44.58;;;15.80;99.90;;;;;;5004822;28;25079;-72
2021/09/07 04:24:27;;;;;;;59.53;40.50;;;15.80;99.90;;;;;;5011802;28;25150;-71
2021/09/07 04:26:53;;;;;;;71.50;40.75;;;15.90;99.90;;;;;;5003830;28;25076;-73
2021/09/07 04:29:20;;;;;;;63.70;40.45;;;15.90;99.90;;;;;;5008142;28;25065;-73
2021/09/07 04:31:47;;;;;;;60.88;40.92;;;15.80;99.90;;;;;;5002727;28;25087;-73
2021/09/07 04:34:12;;;;;;;62.03;40.10;;;15.80;99.90;;;;;;5009537;28;25102;-76
2021/09/07 04:36:38;;;;;;;67.07;40.40;;;15.90;99.90;;;;;;5010123;28;25085;-73
2021/09/07 04:39:04;;;;;;;68.78;42.30;;;15.90;99.90;;;;;;5009609;28;25087;-72
2021/09/07 04:41:29;;;;;;;64.18;42.10;;;15.90;99.90;;;;;;5008063;28;25098;-73
2021/09/07 04:43:56;;;;;;;71.05;42.83;;;15.80;99.90;;;;;;5011001;28;25075;-73
2021/09/07 04:46:22;;;;;;;55.60;38.85;;;15.90;99.90;;;;;;5009835;28;25070;-72
2021/09/07 04:48:53;;;;;;;60.50;39.78;;;15.80;99.90;;;;;;5012526;28;25097;-73
2021/09/07 04:51:19;;;;;;;57.75;38.25;;;15.80;99.90;;;;;;5012284;28;25071;-73
2021/09/07 04:53:45;;;;;;;58.28;40.28;;;15.80;99.90;;;;;;5023398;28;25047;-73
2021/09/07 04:56:18;;;;;;;57.78;40.08;;;16.00;99.90;;;;;;5027968;28;25089;-73
2021/09/07 04:58:45;;;;;;;58.35;39.60;;;16.20;99.90;;;;;;5024657;28;25065;-73
2021/09/07 05:01:11;;;;;;;66.15;42.03;;;16.10;99.90;;;;;;5013063;28;25093;-74
2021/09/07 05:03:38;;;;;;;60.90;39.92;;;16.00;99.90;;;;;;5009493;28;25064;-73
2021/09/07 05:06:03;;;;;;;59.40;39.60;;;15.90;99.90;;;;;;5009730;28;25124;-73
2021/09/07 05:08:29;;;;;;;66.97;39.85;;;15.80;99.90;;;;;;5002209;28;25108;-73
2021/09/07 05:10:55;;;;;;;63.85;39.97;;;15.90;99.90;;;;;;5004398;28;25086;-73
2021/09/07 05:13:21;;;;;;;67.53;43.17;;;15.80;99.90;;;;;;5000015;28;25054;-73
2021/09/07 05:15:46;;;;;;;71.03;44.28;;;15.80;99.90;;;;;;4999112;28;25056;-73
2021/09/07 05:18:12;;;;;;;67.82;41.97;;;15.80;99.90;;;;;;5008726;28;25153;-74
2021/09/07 05:20:37;;;;;;;76.63;46.78;;;15.80;99.90;;;;;;5009127;28;25168;-74
2021/09/07 05:23:03;;;;;;;66.90;41.45;;;15.80;99.90;;;;;;4999516;28;25079;-72
2021/09/07 05:25:30;;;;;;;71.88;44.33;;;15.80;99.90;;;;;;5000412;28;25138;-73
2021/09/07 05:27:56;;;;;;;68.05;43.30;;;15.70;99.90;;;;;;5002243;28;25069;-74
2021/09/07 05:30:22;;;;;;;65.93;43.25;;;15.70;99.90;;;;;;5003041;28;25053;-73
2021/09/07 05:32:48;;;;;;;66.18;43.70;;;15.70;99.90;;;;;;5004778;28;25064;-74
2021/09/07 05:35:14;;;;;;;67.03;43.95;;;15.70;99.90;;;;;;5006517;28;25077;-75
2021/09/07 05:37:41;;;;;;;58.63;39.00;;;15.80;99.90;;;;;;5007518;28;25063;-74
2021/09/07 05:40:14;;;;;;;64.53;41.90;;;15.90;99.90;;;;;;5007246;28;25106;-74
2021/09/07 05:42:43;;;;;;;62.15;40.70;;;16.00;99.90;;;;;;5005168;28;25132;-73
2021/09/07 05:45:14;;;;;;;59.75;38.60;;;16.20;99.90;;;;;;5006409;28;25106;-72
2021/09/07 05:47:40;;;;;;;62.38;43.22;;;16.30;99.90;;;;;;5006237;28;25061;-74
2021/09/07 05:50:06;;;;;;;59.35;40.75;;;16.30;99.90;;;;;;5008569;28;25071;-73
2021/09/07 05:52:32;;;;;;;60.35;39.83;;;16.30;99.90;;;;;;5004287;28;25145;-74
2021/09/07 05:54:58;;;;;;;61.78;41.97;;;16.40;99.90;;;;;;5003365;28;25058;-74
2021/09/07 05:57:24;;;;;;;56.35;39.85;;;16.50;99.90;;;;;;5008182;28;25062;-74
2021/09/07 05:59:51;;;;;;;62.90;40.22;;;16.60;99.90;;;;;;5006526;28;25067;-74
2021/09/07 06:02:16;;;;;;;68.97;43.55;;;16.70;99.90;;;;;;5002309;28;25092;-74
2021/09/07 06:04:42;;;;;;;66.07;43.25;;;16.80;99.90;;;;;;5002629;28;25087;-73
2021/09/07 06:07:07;;;;;;;60.25;37.85;;;16.80;99.90;;;;;;5005959;28;25067;-74
2021/09/07 06:09:33;;;;;;;55.00;39.10;;;16.90;99.90;;;;;;5007315;28;25070;-74
2021/09/07 06:12:00;;;;;;;66.50;42.58;;;17.00;99.90;;;;;;5002495;28;25079;-74
2021/09/07 06:14:26;;;;;;;61.60;41.53;;;17.00;99.90;;;;;;5004444;28;25069;-74
2021/09/07 06:16:51;;;;;;;62.50;41.30;;;17.00;99.90;;;;;;5007458;28;25109;-72
2021/09/07 06:19:17;;;;;;;63.67;40.85;;;17.00;99.90;;;;;;5004108;28;25061;-73
2021/09/07 06:21:43;;;;;;;61.03;39.80;;;16.90;99.90;;;;;;5006382;28;25112;-72
2021/09/07 06:24:08;;;;;;;64.70;41.08;;;16.90;99.90;;;;;;5006667;28;25087;-73
2021/09/07 06:26:34;;;;;;;58.80;39.70;;;17.10;99.90;;;;;;5008387;28;25128;-74
2021/09/07 06:28:59;;;;;;;58.15;39.28;;;17.20;99.90;;;;;;4998973;28;25071;-73
2021/09/07 06:31:25;;;;;;;58.00;38.55;;;17.40;99.90;;;;;;4998368;28;25111;-73
2021/09/07 06:33:50;;;;;;;57.17;39.75;;;17.60;99.90;;;;;;5008491;28;25091;-73
2021/09/07 06:36:16;;;;;;;53.90;36.38;;;17.70;99.90;;;;;;5010365;28;25067;-74
2021/09/07 06:38:42;;;;;;;57.47;36.70;;;17.80;99.90;;;;;;5011383;28;25070;-71
2021/09/07 06:41:08;;;;;;;54.53;36.33;;;17.80;99.90;;;;;;5012816;28;25058;-74
2021/09/07 06:43:35;;;;;;;51.80;35.92;;;17.80;99.90;;;;;;5010538;28;25062;-74
2021/09/07 06:46:00;;;;;;;54.15;36.70;;;17.90;99.90;;;;;;5003776;28;25084;-73
2021/09/07 06:48:26;;;;;;;50.78;36.45;;;18.10;99.90;;;;;;5013786;28;25070;-73
2021/09/07 06:50:52;;;;;;;51.35;35.30;;;18.10;99.90;;;;;;5008514;28;25066;-74
2021/09/07 06:53:17;;;;;;;53.80;36.05;;;18.10;99.90;;;;;;5004910;28;25073;-72
2021/09/07 06:55:43;;;;;;;53.95;37.10;;;18.20;99.90;;;;;;5000890;28;25067;-73
2021/09/07 06:58:08;;;;;;;52.72;36.25;;;18.30;99.90;;;;;;5005556;28;25060;-73
2021/09/07 07:00:34;;;;;;;53.15;37.40;;;18.40;99.90;;;;;;5007711;28;25063;-72
2021/09/07 07:03:00;;;;;;;52.13;36.50;;;18.40;99.90;;;;;;5014739;28;25081;-73
2021/09/07 07:05:26;;;;;;;50.10;36.35;;;18.40;99.90;;;;;;5018199;28;25081;-72
2021/09/07 07:07:52;;;;;;;53.65;36.78;;;18.50;99.90;;;;;;5005554;28;25066;-73
2021/09/07 07:10:17;;;;;;;47.55;33.03;;;18.50;99.90;;;;;;5019187;28;25076;-73
2021/09/07 07:12:43;;;;;;;52.30;36.15;;;18.60;99.90;;;;;;5002626;28;26228;-73
2021/09/07 07:15:09;;;;;;;52.47;35.53;;;18.70;99.90;;;;;;4997834;28;25078;-73
2021/09/07 07:17:35;;;;;;;48.00;36.28;;;18.70;99.90;;;;;;5009680;28;25120;-71
2021/09/07 07:20:00;;;;;;;57.15;38.25;;;18.60;99.90;;;;;;5006289;28;25077;-73
2021/09/07 07:22:27;;;;;;;54.15;36.72;;;18.60;99.90;;;;;;5017659;28;25075;-72
2021/09/07 07:24:53;;;;;;;50.38;35.08;;;18.70;99.90;;;;;;5011292;28;25075;-72
2021/09/07 07:27:19;;;;;;;52.05;33.58;;;18.70;99.90;;;;;;5025077;28;25075;-73
2021/09/07 07:29:45;;;;;;;50.70;37.38;;;18.80;99.90;;;;;;5020737;28;25089;-74
2021/09/07 07:32:11;;;;;;;49.67;35.05;;;18.90;99.90;;;;;;5018507;28;25082;-74
2021/09/07 07:34:37;;;;;;;47.13;35.42;;;19.00;99.90;;;;;;5023486;28;25072;-73
2021/09/07 07:37:05;;;;;;;49.08;34.92;;;19.20;99.90;;;;;;5021066;28;25066;-73
2021/09/07 07:39:32;;;;;;;49.47;36.38;;;19.30;99.90;;;;;;5029346;28;25061;-73
2021/09/07 07:41:57;;;;;;;50.25;36.20;;;19.40;99.90;;;;;;5034579;28;25068;-74
2021/09/07 07:44:23;;;;;;;52.58;35.67;;;19.50;99.90;;;;;;5032814;28;25088;-73
2021/09/07 07:46:49;;;;;;;47.63;33.55;;;19.30;99.90;;;;;;5036043;28;25101;-74
2021/09/07 07:49:15;;;;;;;47.67;34.40;;;19.20;99.90;;;;;;5035614;28;25081;-74
2021/09/07 07:51:41;;;;;;;51.08;35.58;;;19.40;99.90;;;;;;5034039;28;25090;-73
2021/09/07 07:54:10;;;;;;;44.53;32.65;;;19.50;99.90;;;;;;5018286;28;25094;-72
2021/09/07 07:56:37;;;;;;;46.75;31.38;;;19.70;99.90;;;;;;5026348;28;25099;-72
2021/09/07 07:59:04;;;;;;;44.95;32.08;;;20.00;99.90;;;;;;5033481;28;25101;-72
2021/09/07 08:01:31;;;;;;;41.90;30.80;;;20.20;99.90;;;;;;5024680;28;25064;-73
2021/09/07 08:03:57;;;;;;;42.78;29.63;;;20.30;99.90;;;;;;5020934;28;25063;-74
2021/09/07 08:06:22;;;;;;;52.40;31.92;;;20.40;99.90;;;;;;5028289;28;25056;-73
2021/09/07 08:08:49;;;;;;;44.30;30.73;;;20.40;99.90;;;;;;5010315;28;25140;-73
2021/09/07 08:11:16;;;;;;;45.05;30.80;;;20.70;99.90;;;;;;5026716;28;25095;-74
2021/09/07 08:13:41;;;;;;;40.63;28.02;;;20.90;99.90;;;;;;5034579;28;25067;-73
2021/09/07 08:16:07;;;;;;;40.00;28.90;;;21.10;99.90;;;;;;5034474;28;25107;-73
2021/09/07 08:18:32;;;;;;;38.10;28.33;;;21.20;99.90;;;;;;5033180;28;25085;-74
2021/09/07 08:20:59;;;;;;;35.38;28.40;;;21.00;99.90;;;;;;5028599;28;25086;-74
2021/09/07 08:23:30;;;;;;;37.72;28.30;;;20.90;99.90;;;;;;5032923;28;25064;-74
2021/09/07 08:25:56;;;;;;;43.50;29.33;;;21.20;99.90;;;;;;5032521;28;25066;-73
2021/09/07 08:28:24;;;;;;;37.35;27.05;;;21.80;99.90;;;;;;5027093;28;25088;-73
2021/09/07 08:30:50;;;;;;;39.38;28.80;;;22.10;99.90;;;;;;5025105;28;25061;-73
2021/09/07 08:33:17;;;;;;;38.13;28.77;;;22.50;99.90;;;;;;5032532;28;25098;-72
2021/09/07 08:35:43;;;;;;;38.95;26.45;;;22.50;99.90;;;;;;5030704;28;25050;-73
2021/09/07 08:38:10;;;;;;;32.47;25.42;;;22.60;99.90;;;;;;5025644;28;25116;-73
2021/09/07 08:40:36;;;;;;;35.15;25.63;;;22.90;99.90;;;;;;5018707;28;25096;-72
2021/09/07 08:43:04;;;;;;;36.67;25.15;;;23.00;99.90;;;;;;5016845;28;25072;-74
2021/09/07 08:45:30;;;;;;;35.92;27.05;;;23.10;99.90;;;;;;5010722;28;25070;-73
2021/09/07 08:48:01;;;;;;;39.20;25.42;;;22.90;99.90;;;;;;5013326;28;25054;-73
2021/09/07 08:50:27;;;;;;;41.22;28.40;;;23.10;99.90;;;;;;5013666;28;25068;-74
2021/09/07 08:52:59;;;;;;;36.53;27.45;;;22.90;99.90;;;;;;5015536;28;25084;-73
2021/09/07 08:55:26;;;;;;;38.22;26.67;;;22.90;99.90;;;;;;4997685;28;25084;-74
2021/09/07 08:57:51;;;;;;;34.85;25.90;;;23.00;99.90;;;;;;5005382;28;25094;-73
2021/09/07 09:00:29;;;;;;;39.55;26.95;;;23.20;99.90;;;;;;5004858;28;25095;-74
2021/09/07 09:02:55;;;;;;;28.88;21.70;;;23.50;99.90;;;;;;4997351;28;25083;-74
2021/09/07 09:05:30;;;;;;;28.85;21.63;;;23.70;99.90;;;;;;5010607;28;25077;-75
2021/09/07 09:07:57;;;;;;;32.08;21.90;;;23.70;99.90;;;;;;5010335;28;25133;-75
2021/09/07 09:10:25;;;;;;;32.33;21.70;;;23.70;99.90;;;;;;5011702;28;25163;-74
2021/09/07 09:13:14;;;;;;;30.88;22.42;;;23.60;99.90;;;;;;5007742;28;25122;-75
2021/09/07 09:15:40;;;;;;;28.27;22.40;;;23.70;99.90;;;;;;4991337;28;25084;-74
2021/09/07 09:18:11;;;;;;;30.02;20.75;;;24.20;99.90;;;;;;5000759;28;25109;-74
2021/09/07 09:20:40;;;;;;;24.08;16.73;;;24.20;99.90;;;;;;5012444;28;25113;-73
2021/09/07 09:23:08;;;;;;;23.08;17.10;;;24.40;99.90;;;;;;5011460;28;25079;-74
2021/09/07 09:25:40;;;;;;;23.23;16.83;;;24.60;99.90;;;;;;5000697;28;25129;-75
2021/09/07 09:28:12;;;;;;;23.60;16.42;;;24.50;99.90;;;;;;4994044;28;25144;-75
2021/09/07 09:30:50;;;;;;;23.38;18.42;;;24.30;99.90;;;;;;5011098;28;25086;-75
2021/09/07 09:33:21;;;;;;;27.95;19.10;;;24.10;99.90;;;;;;5009328;28;25145;-76
2021/09/07 09:35:53;;;;;;;31.98;22.73;;;24.10;99.90;;;;;;5011161;28;25057;-75
2021/09/07 09:38:20;;;;;;;32.97;24.38;;;24.00;99.90;;;;;;5011360;28;25075;-72
2021/09/07 09:40:59;;;;;;;29.52;22.80;;;23.60;99.90;;;;;;5012695;28;25065;-75
2021/09/07 09:43:38;;;;;;;30.02;21.50;;;23.30;99.90;;;;;;5009889;28;25069;-74
2021/09/07 09:46:25;;;;;;;26.42;19.98;;;23.60;99.90;;;;;;5009649;28;25082;-73
2021/09/07 09:48:52;;;;;;;32.53;22.83;;;24.10;99.90;;;;;;5015337;28;25143;-74
2021/09/07 09:51:20;;;;;;;29.83;22.33;;;24.30;99.90;;;;;;5011442;28;25094;-74
2021/09/07 09:53:48;;;;;;;31.95;22.70;;;24.00;99.90;;;;;;5006494;28;25058;-74
2021/09/07 09:56:14;;;;;;;30.92;23.08;;;23.50;99.90;;;;;;5012650;28;25103;-75
2021/09/07 09:58:40;;;;;;;29.25;23.20;;;23.40;99.90;;;;;;5022451;28;25106;-74
2021/09/07 10:01:07;;;;;;;36.83;24.25;;;23.10;99.90;;;;;;5019891;28;25067;-74
2021/09/07 10:03:33;;;;;;;33.47;24.08;;;23.00;99.90;;;;;;5016170;28;25044;-74
2021/09/07 10:06:00;;;;;;;30.38;24.20;;;22.80;99.90;;;;;;5028760;28;25050;-75
2021/09/07 10:08:26;;;;;;;22.40;18.92;;;22.90;99.90;;;;;;5029398;28;25083;-74
2021/09/07 10:11:03;;;;;;;27.80;18.98;;;23.10;99.90;;;;;;5005765;28;25144;-74
2021/09/07 10:13:32;;;;;;;27.85;19.48;;;23.30;99.90;;;;;;4998884;28;25050;-75
2021/09/07 10:16:11;;;;;;;28.17;18.77;;;23.40;99.90;;;;;;5003679;28;25080;-76
2021/09/07 10:19:07;;;;;;;24.52;18.25;;;23.50;99.90;;;;;;5001631;28;25089;-75
2021/09/07 10:26:37;;;;;;;21.70;16.52;;;23.90;98.70;;;;;;5008025;28;25062;-73
2021/09/07 10:29:06;;;;;;;21.45;16.83;;;24.00;99.00;;;;;;5007845;28;25081;-75
2021/09/07 10:31:42;;;;;;;21.60;16.70;;;24.00;98.10;;;;;;5008296;28;25097;-75
2021/09/07 10:34:08;;;;;;;22.73;17.85;;;24.20;98.00;;;;;;5010664;28;25142;-74
2021/09/07 10:36:37;;;;;;;21.73;16.67;;;24.20;97.00;;;;;;5012904;28;25106;-75
2021/09/07 10:39:04;;;;;;;22.73;17.10;;;24.30;96.90;;;;;;5010448;28;25061;-74
2021/09/07 10:41:33;;;;;;;21.88;16.30;;;24.40;97.20;;;;;;5011774;28;25116;-75
2021/09/07 10:44:01;;;;;;;25.00;16.63;;;24.50;96.80;;;;;;5016700;28;25121;-75
2021/09/07 10:46:48;;;;;;;22.95;16.90;;;24.60;96.60;;;;;;5013041;28;25067;-74
2021/09/07 10:49:33;;;;;;;22.60;16.98;;;24.70;97.00;;;;;;5014542;28;25131;-73
2021/09/07 10:52:15;;;;;;;21.42;16.63;;;24.80;97.40;;;;;;5000578;28;25139;-75
2021/09/07 10:54:43;;;;;;;;;;;24.80;97.70;;;;;;5005265;28;25070;-74
2021/09/07 10:57:09;;;;;;;24.15;18.05;;;25.00;97.60;;;;;;5014163;28;25056;-73
2021/09/07 10:59:47;;;;;;;25.25;17.33;;;25.10;97.50;;;;;;5015968;28;25057;-73
2021/09/07 11:02:31;;;;;;;21.52;15.85;;;25.10;96.80;;;;;;5013520;28;25140;-74
2021/09/07 11:04:58;;;;;;;25.00;17.27;;;25.20;97.40;;;;;;5004901;28;25143;-74
2021/09/07 11:07:45;;;;;;;28.35;19.02;;;25.20;97.50;;;;;;5021774;28;25057;-76
2021/09/07 11:10:14;;;;;;;26.63;18.55;;;25.30;97.80;;;;;;5006758;28;25057;-75
2021/09/07 11:12:40;;;;;;;22.77;17.60;;;25.40;98.30;;;;;;5002847;28;25089;-76
2021/09/07 11:15:10;;;;;;;34.15;20.38;;;25.60;98.40;;;;;;5004101;28;25092;-75
2021/09/07 11:17:51;;;;;;;27.67;19.75;;;25.70;97.50;;;;;;5016024;28;25056;-73
2021/09/07 11:20:19;;;;;;;22.87;18.67;;;25.80;97.50;;;;;;5008050;28;25081;-75
2021/09/07 11:22:46;;;;;;;33.88;21.25;;;25.90;97.80;;;;;;5012284;28;25093;-75
2021/09/07 11:25:15;;;;;;;29.63;21.58;;;25.90;97.10;;;;;;5011141;28;25057;-74
2021/09/07 11:27:51;;;;;;;27.60;20.08;;;25.80;97.20;;;;;;5010816;28;25073;-73
2021/09/07 11:30:34;;;;;;;27.80;19.15;;;26.00;97.60;;;;;;5009832;28;25059;-74
2021/09/07 11:33:00;;;;;;;26.33;21.15;;;26.30;97.40;;;;;;5011608;28;25062;-76
2021/09/07 11:35:27;;;;;;;23.63;19.38;;;26.70;97.00;;;;;;5016686;28;25129;-74
2021/09/07 11:37:57;;;;;;;26.40;19.38;;;27.10;96.50;;;;;;5015205;28;25069;-75
2021/09/07 11:40:23;;;;;;;29.70;20.30;;;27.60;96.50;;;;;;5011555;28;25080;-75
2021/09/07 11:42:50;;;;;;;24.70;19.10;;;27.60;95.40;;;;;;5013960;28;25081;-74
2021/09/07 11:45:31;;;;;;;28.15;17.58;;;27.70;95.40;;;;;;5012700;28;25075;-73
2021/09/07 11:47:59;;;;;;;28.13;21.08;;;28.30;95.10;;;;;;5011269;28;25140;-73
2021/09/07 11:50:30;;;;;;;25.77;18.20;;;27.60;94.10;;;;;;5011096;28;25083;-72
2021/09/07 11:52:57;;;;;;;24.83;18.97;;;27.60;95.80;;;;;;5014477;28;25077;-74
2021/09/07 11:55:43;;;;;;;22.45;17.98;;;27.90;94.70;;;;;;5012707;28;25077;-73
2021/09/07 11:58:10;;;;;;;24.73;16.38;;;27.90;94.90;;;;;;5002794;28;25078;-73
2021/09/07 12:00:36;;;;;;;26.75;17.02;;;28.00;94.70;;;;;;4997968;28;25072;-75
2021/09/07 12:03:16;;;;;;;24.92;15.13;;;28.50;94.30;;;;;;5013419;28;25091;-75
2021/09/07 12:05:58;;;;;;;23.00;14.18;;;29.20;92.40;;;;;;5010863;28;25114;-74
2021/09/07 12:08:34;;;;;;;;;;;29.00;92.30;;;;;;5003442;28;25082;-73
2021/09/07 12:11:00;;;;;;;19.65;14.50;;;28.90;92.30;;;;;;5008164;28;25051;-74
2021/09/07 12:13:26;;;;;;;20.73;13.48;;;29.00;92.00;;;;;;5012949;28;25159;-74
2021/09/07 12:15:53;;;;;;;17.10;12.80;;;29.20;91.70;;;;;;5012276;28;25096;-74
2021/09/07 12:18:48;;;;;;;15.63;12.95;;;29.30;91.40;;;;;;5011688;28;25077;-73
2021/09/07 12:21:20;;;;;;;17.38;12.25;;;28.60;90.70;;;;;;5007077;28;25066;-73
2021/09/07 12:23:48;;;;;;;15.52;12.57;;;28.20;91.50;;;;;;4999667;28;25113;-71
2021/09/07 12:26:14;;;;;;;19.88;12.25;;;27.90;91.10;;;;;;5009297;28;25104;-74
2021/09/07 12:28:41;;;;;;;13.45;10.52;;;27.50;91.30;;;;;;4997331;28;25047;-73
2021/09/07 12:31:21;;;;;;;21.55;10.73;;;27.50;92.70;;;;;;5011332;28;25110;-74
2021/09/07 12:33:51;;;;;;;20.77;12.20;;;27.60;92.70;;;;;;4991467;28;25098;-76
2021/09/07 12:36:21;;;;;;;19.15;12.35;;;28.10;92.00;;;;;;5005689;28;25065;-74